Time;durP1;ratioP1;P1;durP2;ratioP2;P2;SDS_P1;SDS_P2;PMS_P1;PMS_P2;Temp;Humidity;BMP_temperature;BMP_pressure;BME280_temperature;BME280_humidity;BME280_pressure;Samples;Min_cycle;Max_cycle;Signal;HPM_P1;HPM_P2
2023/09/05 00:00:19;;;;;;;1.20;0.52;;;18.40;87.20;;;;;;6232854;22;20023;-89
2023/09/05 00:02:48;;;;;;;1.67;0.77;;;18.40;87.40;;;;;;6258164;22;20023;-89
2023/09/05 00:05:18;;;;;;;1.80;0.88;;;18.30;87.50;;;;;;6233298;22;20034;-88
2023/09/05 00:07:45;;;;;;;1.42;0.68;;;18.30;87.60;;;;;;6233208;22;20030;-89
2023/09/05 00:10:13;;;;;;;1.10;0.50;;;18.30;87.60;;;;;;6256998;22;20012;-88
2023/09/05 00:12:44;;;;;;;1.02;0.47;;;18.30;87.60;;;;;;6233158;22;20019;-89
2023/09/05 00:15:13;;;;;;;1.33;0.60;;;18.30;87.60;;;;;;6232522;22;20015;-89
2023/09/05 00:17:42;;;;;;;1.10;0.50;;;18.30;87.60;;;;;;6282604;22;20102;-89
2023/09/05 00:20:15;;;;;;;1.27;0.55;;;18.20;87.70;;;;;;6257403;22;20016;-89
2023/09/05 00:22:43;;;;;;;2.00;0.70;;;18.20;87.80;;;;;;6256954;22;20023;-89
2023/09/05 00:25:11;;;;;;;1.73;0.70;;;18.20;87.90;;;;;;6282811;22;20030;-89
2023/09/05 00:27:40;;;;;;;1.83;0.52;;;18.20;88.10;;;;;;6234325;22;20019;-89
2023/09/05 00:30:08;;;;;;;1.92;0.50;;;18.10;88.10;;;;;;6284042;22;20023;-89
2023/09/05 00:32:37;;;;;;;1.42;0.57;;;18.10;88.10;;;;;;6283408;22;20020;-89
2023/09/05 00:35:05;;;;;;;1.45;0.70;;;18.10;88.10;;;;;;6233765;22;20046;-89
2023/09/05 00:37:32;;;;;;;1.48;0.70;;;18.10;88.00;;;;;;6258225;22;20098;-87
2023/09/05 00:40:00;;;;;;;2.05;0.50;;;18.20;87.90;;;;;;6231882;22;20110;-89
2023/09/05 00:42:30;;;;;;;1.60;0.60;;;18.20;87.60;;;;;;6231997;22;20392;-89
2023/09/05 00:44:58;;;;;;;1.23;0.60;;;18.30;87.50;;;;;;6232343;22;20015;-88
2023/09/05 00:47:30;;;;;;;1.45;0.60;;;18.30;87.40;;;;;;6256818;22;20023;-88
2023/09/05 00:49:58;;;;;;;1.20;0.45;;;18.30;87.30;;;;;;6233662;22;20019;-89
2023/09/05 00:52:28;;;;;;;1.92;0.80;;;18.30;87.20;;;;;;6256604;22;20065;-88
2023/09/05 00:54:55;;;;;;;1.33;0.45;;;18.30;87.20;;;;;;6281438;22;20019;-87
2023/09/05 00:57:24;;;;;;;1.67;0.70;;;18.30;87.10;;;;;;6256494;22;20015;-88
2023/09/05 00:59:51;;;;;;;1.38;0.60;;;18.30;87.10;;;;;;6231929;22;20453;-88
2023/09/05 01:02:18;;;;;;;1.60;0.50;;;18.30;87.10;;;;;;6231487;22;20026;-87
2023/09/05 01:04:45;;;;;;;1.30;0.70;;;18.30;87.00;;;;;;6232239;22;20019;-88
2023/09/05 01:07:26;;;;;;;1.20;0.60;;;18.30;87.10;;;;;;6258023;22;20019;-93
2023/09/05 01:09:58;;;;;;;1.20;0.50;;;18.30;87.10;;;;;;6282988;22;20084;-92
2023/09/05 01:12:25;;;;;;;;;;;18.30;87.10;;;;;;6309422;22;20039;-92
2023/09/05 01:14:53;;;;;;;0.90;0.50;;;18.20;87.30;;;;;;6258024;22;20240;-92
2023/09/05 01:17:20;;;;;;;1.55;0.60;;;18.10;87.40;;;;;;6257681;22;20450;-92
2023/09/05 01:19:53;;;;;;;1.02;0.50;;;18.10;87.50;;;;;;6232922;22;20065;-92
2023/09/05 01:22:46;;;;;;;1.17;0.50;;;18.00;87.60;;;;;;6282702;22;20023;-92
2023/09/05 01:25:15;;;;;;;0.93;0.50;;;18.00;87.60;;;;;;6257964;22;20023;-92
2023/09/05 01:27:42;;;;;;;1.48;0.70;;;18.00;87.80;;;;;;6232263;22;20102;-92
2023/09/05 01:30:10;;;;;;;3.38;0.65;;;17.90;87.90;;;;;;6232577;22;20050;-92
2023/09/05 01:32:38;;;;;;;1.73;0.82;;;17.90;87.90;;;;;;6232476;22;20015;-92
2023/09/05 01:35:05;;;;;;;1.33;0.60;;;17.90;87.90;;;;;;6257895;22;20070;-92
2023/09/05 01:37:35;;;;;;;1.67;0.70;;;17.90;87.90;;;;;;6233455;22;20011;-92
2023/09/05 01:40:02;;;;;;;2.42;0.80;;;17.90;87.90;;;;;;6257848;22;20041;-92
2023/09/05 01:42:30;;;;;;;1.58;0.68;;;17.80;87.80;;;;;;6232808;22;20027;-92
2023/09/05 01:44:57;;;;;;;1.20;0.55;;;17.80;87.90;;;;;;6232697;22;20023;-92
2023/09/05 01:47:24;;;;;;;1.70;0.82;;;17.80;87.90;;;;;;6282888;22;20102;-92
2023/09/05 01:49:51;;;;;;;1.73;0.80;;;17.80;87.90;;;;;;6233094;22;20018;-92
2023/09/05 01:52:18;;;;;;;1.95;0.82;;;17.80;88.00;;;;;;6232065;22;20011;-92
2023/09/05 01:54:45;;;;;;;1.63;0.60;;;17.70;88.00;;;;;;6257342;22;20098;-92
2023/09/05 01:57:13;;;;;;;2.05;0.68;;;17.70;88.10;;;;;;6257345;22;20019;-92
2023/09/05 01:59:40;;;;;;;1.65;0.70;;;17.70;88.20;;;;;;6232543;22;20015;-92
2023/09/05 02:02:08;;;;;;;1.83;0.95;;;17.60;88.30;;;;;;6232326;22;20019;-92
2023/09/05 02:04:35;;;;;;;1.45;0.70;;;17.60;88.50;;;;;;6257942;22;20028;-92
2023/09/05 02:07:03;;;;;;;1.52;0.75;;;17.50;89.20;;;;;;6232305;22;20340;-92
2023/09/05 02:09:30;;;;;;;1.73;0.82;;;17.50;88.70;;;;;;6257919;22;20069;-92
2023/09/05 02:11:57;;;;;;;1.00;0.60;;;17.50;88.80;;;;;;6232166;22;20019;-92
2023/09/05 02:14:24;;;;;;;1.92;0.80;;;17.40;88.80;;;;;;6283162;22;20019;-91
2023/09/05 02:16:52;;;;;;;2.08;0.80;;;17.40;88.90;;;;;;6282522;22;20025;-91
2023/09/05 02:19:20;;;;;;;1.13;0.60;;;17.40;88.90;;;;;;6207963;22;20057;-92
2023/09/05 02:21:49;;;;;;;1.92;0.80;;;17.40;88.90;;;;;;6257543;22;20045;-92
2023/09/05 02:24:19;;;;;;;2.50;1.00;;;17.40;89.00;;;;;;6257990;22;20027;-91
2023/09/05 02:26:46;;;;;;;1.40;0.70;;;17.30;89.00;;;;;;6257248;22;20015;-92
2023/09/05 02:29:14;;;;;;;1.88;0.73;;;17.30;89.10;;;;;;6281993;22;20403;-91
2023/09/05 02:31:43;;;;;;;1.30;0.60;;;17.30;89.20;;;;;;6257158;22;20026;-91
2023/09/05 02:34:13;;;;;;;1.83;0.90;;;17.30;89.20;;;;;;6281914;22;20372;-91
2023/09/05 02:36:42;;;;;;;1.80;0.70;;;17.30;89.30;;;;;;6232539;22;20449;-91
2023/09/05 02:39:11;;;;;;;1.23;0.63;;;17.20;89.40;;;;;;6256472;22;20046;-92
2023/09/05 02:41:39;;;;;;;1.15;0.50;;;17.30;89.40;;;;;;6232609;22;20019;-91
2023/09/05 02:44:06;;;;;;;1.50;0.93;;;17.20;89.40;;;;;;6231789;22;20019;-91
2023/09/05 02:46:33;;;;;;;1.45;0.70;;;17.20;89.40;;;;;;6257014;22;20031;-91
2023/09/05 02:49:02;;;;;;;1.30;0.70;;;17.20;89.50;;;;;;6235039;22;20023;-91
2023/09/05 02:51:29;;;;;;;1.50;0.70;;;17.20;89.50;;;;;;6259142;22;20042;-91
2023/09/05 02:53:59;;;;;;;1.30;0.60;;;17.20;89.60;;;;;;6232166;22;20025;-92
2023/09/05 02:56:26;;;;;;;1.73;0.70;;;17.20;89.50;;;;;;6257037;22;20028;-92
2023/09/05 02:58:53;;;;;;;1.42;0.60;;;17.20;89.50;;;;;;6281796;22;20042;-92
2023/09/05 03:01:21;;;;;;;1.08;0.60;;;17.20;89.50;;;;;;6256512;22;20370;-92
2023/09/05 03:03:48;;;;;;;1.67;0.70;;;17.20;89.50;;;;;;6282979;22;20026;-92
2023/09/05 03:06:17;;;;;;;2.15;0.90;;;17.20;89.50;;;;;;6259456;22;20046;-93
2023/09/05 03:08:45;;;;;;;1.20;0.60;;;17.20;89.50;;;;;;6257263;22;20050;-92
2023/09/05 03:11:18;;;;;;;1.27;0.60;;;17.20;89.50;;;;;;6234554;22;20022;-92
2023/09/05 03:13:46;;;;;;;2.13;1.10;;;17.20;89.50;;;;;;6234343;22;20030;-92
2023/09/05 03:16:15;;;;;;;1.30;0.60;;;17.20;89.50;;;;;;6283950;22;20019;-93
2023/09/05 03:18:47;;;;;;;1.77;0.73;;;17.20;89.60;;;;;;6259911;22;20039;-92
2023/09/05 03:21:14;;;;;;;1.35;0.68;;;17.20;89.60;;;;;;6233708;22;20030;-92
2023/09/05 03:23:41;;;;;;;1.35;0.63;;;17.20;90.00;;;;;;6283371;22;20030;-92
2023/09/05 03:26:08;;;;;;;1.48;0.68;;;17.20;89.60;;;;;;6233829;22;20453;-92
2023/09/05 03:28:42;;;;;;;1.38;0.70;;;17.20;89.60;;;;;;6283799;22;20043;-92
2023/09/05 03:31:13;;;;;;;2.65;1.00;;;17.20;89.60;;;;;;6259708;22;20445;-92
2023/09/05 03:33:41;;;;;;;1.60;0.75;;;17.20;89.60;;;;;;6233322;22;20024;-92
2023/09/05 03:36:11;;;;;;;1.50;0.77;;;17.20;89.60;;;;;;6258883;22;20021;-93
2023/09/05 03:38:38;;;;;;;2.17;1.05;;;17.20;89.60;;;;;;6283911;22;20105;-91
2023/09/05 03:41:05;;;;;;;2.00;0.85;;;17.20;89.70;;;;;;6233289;22;20043;-92
2023/09/05 03:43:32;;;;;;;1.70;0.70;;;17.20;89.60;;;;;;6283819;22;20023;-91
2023/09/05 03:46:00;;;;;;;1.83;0.93;;;17.20;89.70;;;;;;6233170;22;20023;-92
2023/09/05 03:48:27;;;;;;;1.60;0.73;;;17.10;89.60;;;;;;6283557;22;20023;-92
2023/09/05 03:50:55;;;;;;;1.80;0.90;;;17.10;89.70;;;;;;6233284;22;20027;-92
2023/09/05 03:53:22;;;;;;;1.77;0.57;;;17.10;89.80;;;;;;6258529;22;20081;-92
2023/09/05 03:55:49;;;;;;;2.40;0.85;;;17.10;89.90;;;;;;6233970;22;20019;-92
2023/09/05 03:58:16;;;;;;;2.35;0.90;;;17.10;90.00;;;;;;6233225;22;20019;-92
2023/09/05 04:00:45;;;;;;;1.98;0.70;;;17.10;90.00;;;;;;6233931;22;20042;-92
2023/09/05 04:03:13;;;;;;;2.25;0.85;;;17.00;90.00;;;;;;6259700;22;20019;-92
2023/09/05 04:05:40;;;;;;;2.85;1.20;;;17.00;90.00;;;;;;6259731;22;20030;-92
2023/09/05 04:08:09;;;;;;;3.20;1.20;;;17.00;90.00;;;;;;6284175;22;20023;-92
2023/09/05 04:10:37;;;;;;;1.88;0.98;;;17.00;90.10;;;;;;6233194;22;20090;-92
2023/09/05 04:13:04;;;;;;;2.58;1.10;;;17.00;90.10;;;;;;6257777;22;20015;-92
2023/09/05 04:15:32;;;;;;;1.70;0.80;;;16.90;90.10;;;;;;6283065;22;20019;-92
2023/09/05 04:18:00;;;;;;;1.95;0.88;;;16.90;90.10;;;;;;6309060;22;20015;-91
2023/09/05 04:20:31;;;;;;;3.55;1.25;;;16.90;90.20;;;;;;6283539;22;20030;-91
2023/09/05 04:22:58;;;;;;;2.15;1.13;;;16.90;90.20;;;;;;6257972;22;20137;-91
2023/09/05 04:25:27;;;;;;;1.38;0.70;;;16.90;90.20;;;;;;6282887;22;20023;-92
2023/09/05 04:27:54;;;;;;;2.33;1.00;;;16.90;90.20;;;;;;6232698;22;20023;-91
2023/09/05 04:30:21;;;;;;;2.85;1.13;;;16.80;90.20;;;;;;6283688;22;20122;-91
2023/09/05 04:32:50;;;;;;;1.95;0.93;;;16.80;90.20;;;;;;6282905;22;20022;-91
2023/09/05 04:35:19;;;;;;;2.67;1.23;;;16.80;90.20;;;;;;6258279;22;20019;-91
2023/09/05 04:37:46;;;;;;;2.30;1.13;;;16.80;90.20;;;;;;6233137;22;20019;-91
2023/09/05 04:40:14;;;;;;;2.25;0.98;;;16.80;90.20;;;;;;6257671;22;20532;-91
2023/09/05 04:42:42;;;;;;;2.88;1.00;;;16.80;90.20;;;;;;6233237;22;20027;-91
2023/09/05 04:45:09;;;;;;;3.55;1.38;;;16.80;90.20;;;;;;6257746;22;20027;-91
2023/09/05 04:47:38;;;;;;;1.75;0.88;;;16.80;90.30;;;;;;6282754;22;20019;-91
2023/09/05 04:50:08;;;;;;;2.47;1.10;;;16.70;90.30;;;;;;6233305;22;20050;-91
2023/09/05 04:52:36;;;;;;;2.08;1.15;;;16.70;90.30;;;;;;6257662;22;20049;-91
2023/09/05 04:55:04;;;;;;;2.30;1.02;;;16.80;90.30;;;;;;6233067;22;20019;-91
2023/09/05 04:57:31;;;;;;;2.22;0.93;;;16.70;90.30;;;;;;6207600;22;20102;-86
2023/09/05 04:59:59;;;;;;;1.80;1.10;;;16.80;90.30;;;;;;6256868;22;20019;-85
2023/09/05 05:02:28;;;;;;;3.47;1.05;;;16.70;90.30;;;;;;6234250;22;20077;-86
2023/09/05 05:04:55;;;;;;;1.70;0.93;;;16.80;90.30;;;;;;6259029;22;20019;-85
2023/09/05 05:07:22;;;;;;;2.30;1.00;;;16.70;90.30;;;;;;6235949;22;20026;-86
2023/09/05 05:09:49;;;;;;;2.30;1.20;;;16.70;90.30;;;;;;6295552;22;20100;-86
2023/09/05 05:12:17;;;;;;;2.55;1.05;;;16.70;90.30;;;;;;6263308;22;20019;-86
2023/09/05 05:14:44;;;;;;;2.42;1.02;;;16.70;90.30;;;;;;6263745;22;20022;-86
2023/09/05 05:17:12;;;;;;;1.88;0.90;;;16.70;90.30;;;;;;6284384;22;20029;-86
2023/09/05 05:19:41;;;;;;;2.03;0.90;;;16.70;90.30;;;;;;6231586;22;20048;-86
2023/09/05 05:22:08;;;;;;;2.13;0.90;;;16.70;90.60;;;;;;6256625;22;20033;-85
2023/09/05 05:24:36;;;;;;;1.73;0.90;;;16.70;90.30;;;;;;6231172;22;20029;-86
2023/09/05 05:27:03;;;;;;;1.55;0.80;;;16.70;90.30;;;;;;6231574;22;20094;-86
2023/09/05 05:29:32;;;;;;;2.67;1.45;;;16.80;90.30;;;;;;6230718;22;20073;-86
2023/09/05 05:32:08;;;;;;;1.92;0.98;;;16.80;90.30;;;;;;6231370;22;20084;-86
2023/09/05 05:34:36;;;;;;;2.42;1.08;;;16.80;90.20;;;;;;6230763;22;20077;-85
2023/09/05 05:37:03;;;;;;;2.75;0.80;;;16.90;90.30;;;;;;6231346;22;20019;-86
2023/09/05 05:39:30;;;;;;;2.15;1.08;;;16.90;90.20;;;;;;6281391;22;20011;-86
2023/09/05 05:41:58;;;;;;;2.53;0.82;;;16.90;90.20;;;;;;6230559;22;20022;-86
2023/09/05 05:44:25;;;;;;;3.03;0.93;;;16.90;90.20;;;;;;6255696;22;20023;-86
2023/09/05 05:46:56;;;;;;;1.75;0.95;;;17.00;90.20;;;;;;6281558;22;20103;-86
2023/09/05 05:49:28;;;;;;;2.95;0.85;;;17.00;90.20;;;;;;6310375;22;20114;-86
2023/09/05 05:51:57;;;;;;;1.83;0.95;;;17.00;90.10;;;;;;6257185;22;20015;-86
2023/09/05 05:54:24;;;;;;;2.13;0.70;;;17.10;90.10;;;;;;6232924;22;20011;-87
2023/09/05 05:56:56;;;;;;;2.10;0.93;;;17.10;90.10;;;;;;6231071;22;20464;-87
2023/09/05 05:59:24;;;;;;;1.40;0.70;;;17.20;90.00;;;;;;6231446;22;20098;-86
2023/09/05 06:01:52;;;;;;;2.55;1.00;;;17.20;90.00;;;;;;6281696;22;20023;-86
2023/09/05 06:04:20;;;;;;;1.83;0.80;;;17.30;89.90;;;;;;6230580;22;20069;-86
2023/09/05 06:06:49;;;;;;;1.70;0.68;;;17.40;89.70;;;;;;6280932;22;20023;-87
2023/09/05 06:09:20;;;;;;;1.38;0.70;;;17.50;89.60;;;;;;6281345;22;20076;-87
2023/09/05 06:11:47;;;;;;;1.10;0.60;;;17.60;89.40;;;;;;6255296;22;20026;-86
2023/09/05 06:14:15;;;;;;;1.58;0.73;;;17.70;89.20;;;;;;6255735;22;20023;-86
2023/09/05 06:16:46;;;;;;;3.03;1.23;;;17.80;89.10;;;;;;6255631;22;20023;-87
2023/09/05 06:19:14;;;;;;;2.22;0.80;;;17.80;88.80;;;;;;6283329;22;20398;-86
2023/09/05 06:21:46;;;;;;;1.55;0.70;;;17.90;88.70;;;;;;6230605;22;20020;-86
2023/09/05 06:24:14;;;;;;;1.65;0.60;;;18.00;88.50;;;;;;6256499;22;20015;-84
2023/09/05 06:26:44;;;;;;;1.02;0.50;;;18.10;88.30;;;;;;6255295;22;20015;-85
2023/09/05 06:29:12;;;;;;;1.30;0.60;;;18.30;88.20;;;;;;6231042;22;20019;-85
2023/09/05 06:31:39;;;;;;;1.42;0.80;;;18.40;88.00;;;;;;6230381;22;20027;-85
2023/09/05 06:34:06;;;;;;;1.88;0.70;;;18.50;87.80;;;;;;6229915;22;20495;-85
2023/09/05 06:36:33;;;;;;;1.30;0.60;;;18.60;87.50;;;;;;6233052;22;20015;-85
2023/09/05 06:39:02;;;;;;;2.97;0.68;;;18.70;87.30;;;;;;6280778;22;20374;-88
2023/09/05 06:41:29;;;;;;;1.77;0.70;;;18.80;87.00;;;;;;6230169;22;20015;-84
2023/09/05 06:43:57;;;;;;;1.52;0.63;;;18.90;86.90;;;;;;6254872;22;20020;-84
2023/09/05 06:46:24;;;;;;;1.42;0.70;;;19.00;86.60;;;;;;6230836;22;20071;-86
2023/09/05 06:48:51;;;;;;;2.08;0.80;;;19.10;86.50;;;;;;6230206;22;20061;-85
2023/09/05 06:51:18;;;;;;;1.17;0.50;;;19.20;86.30;;;;;;6305757;22;20069;-84
2023/09/05 06:53:45;;;;;;;1.58;0.60;;;19.30;86.10;;;;;;6255170;22;20022;-84
2023/09/05 06:56:12;;;;;;;1.42;0.57;;;19.40;86.00;;;;;;6255295;22;20015;-86
2023/09/05 06:58:39;;;;;;;1.45;0.55;;;19.50;85.90;;;;;;6306412;22;20392;-86
2023/09/05 07:01:06;;;;;;;1.55;0.68;;;19.50;85.80;;;;;;6254806;22;20023;-84
2023/09/05 07:03:33;;;;;;;1.20;0.50;;;19.60;85.60;;;;;;6280126;22;20015;-84
2023/09/05 07:06:03;;;;;;;1.23;0.63;;;19.60;85.50;;;;;;6229700;22;20023;-84
2023/09/05 07:08:33;;;;;;;0.95;0.40;;;19.70;85.30;;;;;;6280311;22;20076;-86
2023/09/05 07:11:00;;;;;;;1.08;0.50;;;19.80;85.20;;;;;;6280190;22;20023;-84
2023/09/05 07:13:28;;;;;;;1.13;0.50;;;19.90;85.10;;;;;;6229597;22;20022;-86
2023/09/05 07:15:57;;;;;;;1.73;0.77;;;19.90;84.90;;;;;;6228931;22;20051;-83
2023/09/05 07:18:24;;;;;;;1.17;0.70;;;20.00;84.70;;;;;;6305513;22;20019;-84
2023/09/05 07:20:52;;;;;;;1.35;0.82;;;20.10;84.50;;;;;;6279690;22;20098;-83
2023/09/05 07:23:19;;;;;;;1.65;0.63;;;20.10;84.30;;;;;;6254349;22;20048;-85
2023/09/05 07:25:46;;;;;;;1.58;0.68;;;20.20;84.20;;;;;;6254205;22;20023;-84
2023/09/05 07:28:14;;;;;;;1.95;0.75;;;20.20;84.00;;;;;;6229796;22;20376;-85
2023/09/05 07:30:41;;;;;;;2.63;0.50;;;20.30;83.90;;;;;;6279699;22;20396;-84
2023/09/05 07:33:08;;;;;;;2.80;0.88;;;20.40;83.80;;;;;;6305453;22;20082;-84
2023/09/05 07:35:36;;;;;;;1.73;0.70;;;20.40;84.20;;;;;;6229989;22;20020;-85
2023/09/05 07:38:03;;;;;;;1.75;0.70;;;20.50;83.50;;;;;;6229287;22;20022;-83
2023/09/05 07:40:30;;;;;;;1.40;0.60;;;20.60;83.40;;;;;;6254652;22;20079;-85
2023/09/05 07:43:00;;;;;;;1.40;0.60;;;20.60;83.30;;;;;;6205367;22;20337;-84
2023/09/05 07:45:27;;;;;;;1.98;0.80;;;20.70;83.10;;;;;;6229971;22;20412;-83
2023/09/05 07:47:54;;;;;;;1.27;0.57;;;20.70;83.00;;;;;;6279981;22;20023;-86
2023/09/05 07:50:23;;;;;;;2.35;1.13;;;20.80;82.90;;;;;;6279840;22;20023;-84
2023/09/05 07:52:50;;;;;;;1.27;0.65;;;20.90;82.80;;;;;;6229403;22;20026;-84
2023/09/05 07:55:17;;;;;;;1.17;0.60;;;21.00;82.60;;;;;;6228937;22;20102;-85
2023/09/05 07:57:45;;;;;;;2.30;0.98;;;21.00;82.50;;;;;;6256413;22;20030;-84
2023/09/05 08:00:15;;;;;;;0.95;0.50;;;21.10;82.30;;;;;;6231991;22;20031;-85
2023/09/05 08:02:43;;;;;;;1.55;0.65;;;21.20;82.20;;;;;;6257028;22;20360;-85
2023/09/05 08:05:12;;;;;;;1.30;0.60;;;21.30;82.10;;;;;;6256932;22;20340;-86
2023/09/05 08:07:39;;;;;;;2.80;0.85;;;21.40;82.00;;;;;;6230651;22;20019;-85
2023/09/05 08:10:07;;;;;;;2.20;0.80;;;21.40;81.70;;;;;;6256264;22;20024;-85
2023/09/05 08:12:34;;;;;;;1.27;0.60;;;21.50;81.60;;;;;;6231321;22;20025;-84
2023/09/05 08:15:01;;;;;;;2.53;0.77;;;21.70;81.40;;;;;;6256131;22;20388;-85
2023/09/05 08:17:30;;;;;;;1.90;0.60;;;21.70;81.00;;;;;;6256353;22;20019;-86
2023/09/05 08:19:58;;;;;;;1.52;0.60;;;21.80;80.70;;;;;;6307288;22;20106;-84
2023/09/05 08:22:25;;;;;;;1.70;0.63;;;21.90;80.40;;;;;;6281396;22;20011;-84
2023/09/05 08:24:52;;;;;;;1.35;0.60;;;22.00;80.20;;;;;;6255594;22;20029;-84
2023/09/05 08:27:20;;;;;;;1.55;0.47;;;22.10;80.00;;;;;;6230577;22;20023;-84
2023/09/05 08:29:47;;;;;;;1.20;0.60;;;22.10;79.80;;;;;;6256066;22;20019;-86
2023/09/05 08:32:14;;;;;;;0.98;0.50;;;22.20;80.30;;;;;;6281559;22;20023;-85
2023/09/05 08:34:41;;;;;;;1.65;0.60;;;22.20;79.50;;;;;;6231068;22;20023;-86
2023/09/05 08:37:08;;;;;;;1.15;0.50;;;22.30;79.30;;;;;;6256645;22;20105;-85
2023/09/05 08:39:36;;;;;;;1.23;0.50;;;22.40;79.20;;;;;;6230949;22;20040;-84
2023/09/05 08:42:07;;;;;;;1.45;0.50;;;22.40;79.00;;;;;;6256368;22;20023;-92
2023/09/05 08:44:40;;;;;;;1.98;0.50;;;22.50;78.70;;;;;;6257121;22;20049;-88
2023/09/05 08:47:08;;;;;;;1.95;0.80;;;22.60;78.60;;;;;;6256437;22;20072;-85
2023/09/05 08:49:37;;;;;;;2.80;0.80;;;22.60;78.40;;;;;;6255820;22;20098;-84
2023/09/05 08:52:06;;;;;;;1.42;0.60;;;22.70;78.20;;;;;;6231063;22;20311;-85
2023/09/05 08:54:33;;;;;;;1.90;0.90;;;22.70;78.10;;;;;;6280871;22;20030;-83
2023/09/05 08:57:03;;;;;;;1.20;0.60;;;22.80;77.90;;;;;;6256109;22;20047;-87
2023/09/05 08:59:31;;;;;;;1.50;0.60;;;22.80;77.80;;;;;;6257537;22;20015;-88
2023/09/05 09:02:00;;;;;;;1.27;0.57;;;22.90;77.80;;;;;;6280538;22;20050;-86
2023/09/05 09:04:28;;;;;;;1.05;0.60;;;23.00;77.70;;;;;;6231211;22;20019;-88
2023/09/05 09:06:57;;;;;;;1.45;0.50;;;23.00;77.40;;;;;;6206722;22;20023;-88
2023/09/05 09:09:36;;;;;;;1.23;0.52;;;23.10;77.30;;;;;;6232100;22;20349;-85
2023/09/05 09:12:04;;;;;;;2.05;0.50;;;23.10;77.10;;;;;;6307425;22;20106;-88
2023/09/05 09:14:31;;;;;;;1.77;0.60;;;23.20;77.00;;;;;;6231511;22;20019;-89
2023/09/05 09:17:00;;;;;;;1.55;0.50;;;23.20;76.80;;;;;;6232025;22;20049;-86
2023/09/05 09:19:31;;;;;;;1.10;0.38;;;23.20;76.60;;;;;;6281703;22;20019;-89
2023/09/05 09:22:03;;;;;;;1.33;0.50;;;23.30;76.50;;;;;;6256978;22;20342;-89
2023/09/05 09:24:34;;;;;;;2.30;0.60;;;23.40;76.40;;;;;;6255970;22;20023;-85
2023/09/05 09:27:03;;;;;;;1.60;0.82;;;23.50;76.30;;;;;;6231422;22;20023;-88
2023/09/05 09:29:32;;;;;;;2.47;0.50;;;23.50;76.20;;;;;;6231363;22;20023;-84
2023/09/05 09:32:04;;;;;;;1.55;0.63;;;23.60;76.70;;;;;;6280573;22;20045;-83
2023/09/05 09:34:34;;;;;;;0.95;0.45;;;23.70;75.80;;;;;;6281151;22;20019;-86
2023/09/05 09:37:01;;;;;;;1.30;0.60;;;23.80;75.80;;;;;;6307101;22;20026;-89
2023/09/05 09:39:30;;;;;;;1.90;0.63;;;23.80;75.50;;;;;;6230554;22;20066;-85
2023/09/05 09:42:00;;;;;;;1.50;0.60;;;23.90;75.10;;;;;;6206046;22;20102;-87
2023/09/05 09:44:32;;;;;;;1.05;0.50;;;24.00;75.10;;;;;;6231923;22;20120;-89
2023/09/05 09:47:01;;;;;;;1.23;0.55;;;24.10;74.80;;;;;;6256181;22;20047;-87
2023/09/05 09:49:30;;;;;;;1.30;0.52;;;24.10;75.30;;;;;;6256041;22;20023;-85
2023/09/05 09:52:05;;;;;;;1.67;0.50;;;24.20;74.40;;;;;;6255374;22;20441;-86
2023/09/05 09:54:37;;;;;;;1.50;0.60;;;24.20;74.30;;;;;;6255734;22;20015;-82
2023/09/05 09:57:05;;;;;;;1.88;0.60;;;24.30;74.20;;;;;;6307317;22;20019;-85
2023/09/05 09:59:37;;;;;;;1.17;0.55;;;24.30;74.10;;;;;;6256603;22;20015;-92
2023/09/05 10:02:08;;;;;;;1.30;0.55;;;24.40;73.70;;;;;;6281673;22;20094;-90
2023/09/05 10:04:46;;;;;;;2.47;0.73;;;24.50;73.60;;;;;;6282088;22;20019;-89
2023/09/05 10:07:14;;;;;;;0.77;0.43;;;24.70;73.40;;;;;;6282520;22;20019;-89
2023/09/05 10:09:45;;;;;;;1.58;0.68;;;24.90;72.80;;;;;;6257353;22;20094;-88
2023/09/05 10:12:20;;;;;;;1.02;0.50;;;25.20;72.00;;;;;;6256568;22;20043;-91
2023/09/05 10:14:49;;;;;;;1.00;0.50;;;25.50;71.40;;;;;;6281939;22;20503;-90
2023/09/05 10:17:17;;;;;;;1.15;0.40;;;25.80;70.90;;;;;;6256319;22;20758;-88
2023/09/05 10:19:45;;;;;;;1.58;0.50;;;26.10;70.30;;;;;;6282136;22;20102;-89
2023/09/05 10:22:16;;;;;;;1.35;0.55;;;26.40;69.80;;;;;;6257220;22;20019;-89
2023/09/05 10:24:53;;;;;;;0.85;0.38;;;26.60;69.00;;;;;;6282540;22;20027;-91
2023/09/05 10:27:20;;;;;;;1.98;0.50;;;26.80;68.40;;;;;;6289613;22;20053;-89
2023/09/05 10:29:48;;;;;;;1.42;0.45;;;27.00;67.70;;;;;;6242164;22;20019;-89
2023/09/05 10:32:22;;;;;;;1.08;0.50;;;27.30;67.40;;;;;;6265088;22;20030;-88
2023/09/05 10:34:54;;;;;;;1.08;0.40;;;27.50;66.80;;;;;;6288537;22;20015;-91
2023/09/05 10:37:26;;;;;;;1.35;0.40;;;27.70;66.50;;;;;;6284710;22;20011;-90
2023/09/05 10:39:55;;;;;;;1.73;0.50;;;27.90;66.10;;;;;;6258916;22;20073;-92
2023/09/05 10:42:29;;;;;;;1.08;0.47;;;28.00;65.70;;;;;;6258700;22;20015;-88
2023/09/05 10:44:58;;;;;;;1.00;0.30;;;28.10;65.10;;;;;;6282531;22;20050;-90
2023/09/05 10:47:54;;;;;;;0.80;0.40;;;28.00;65.40;;;;;;6281596;22;20015;-88
2023/09/05 10:50:23;;;;;;;1.27;0.40;;;27.80;65.40;;;;;;6279407;22;20105;-87
2023/09/05 10:53:11;;;;;;;0.80;0.30;;;27.80;65.50;;;;;;6258032;22;20019;-89
2023/09/05 10:55:44;;;;;;;0.80;0.40;;;27.70;65.50;;;;;;6308547;22;20016;-91
2023/09/05 10:58:38;;;;;;;1.15;0.30;;;27.30;66.20;;;;;;6257416;22;20022;-88
2023/09/05 11:01:31;;;;;;;1.33;0.40;;;27.20;66.80;;;;;;6281465;22;20019;-89
2023/09/05 11:04:07;;;;;;;1.02;0.40;;;27.10;67.10;;;;;;6281360;22;20054;-88
2023/09/05 11:06:35;;;;;;;1.92;0.50;;;26.80;67.30;;;;;;6233428;22;20027;-89
2023/09/05 11:09:06;;;;;;;0.77;0.40;;;26.60;67.40;;;;;;6281839;22;20023;-89
2023/09/05 11:11:36;;;;;;;;;;;26.50;67.50;;;;;;6256509;22;20026;-87
2023/09/05 11:14:04;;;;;;;1.10;0.40;;;26.50;68.10;;;;;;6255683;22;19968;-91
2023/09/05 11:16:51;;;;;;;0.82;0.30;;;26.40;68.30;;;;;;6281727;22;20011;-92
2023/09/05 11:19:37;;;;;;;0.77;0.30;;;26.40;68.10;;;;;;6256088;22;20429;-88
2023/09/05 11:22:17;;;;;;;0.95;0.30;;;26.40;68.00;;;;;;6307284;22;20025;-88
2023/09/05 11:24:53;;;;;;;1.17;0.40;;;26.60;67.80;;;;;;6281874;22;20346;-87
2023/09/05 11:27:23;;;;;;;1.10;0.50;;;27.50;66.60;;;;;;6256366;22;20030;-92
2023/09/05 11:29:55;;;;;;;0.77;0.40;;;28.30;64.90;;;;;;6256009;22;20023;-91
2023/09/05 11:32:31;;;;;;;0.60;0.30;;;29.00;63.40;;;;;;6283729;22;20023;-88
2023/09/05 11:35:01;;;;;;;0.77;0.30;;;29.60;62.20;;;;;;6258509;22;20044;-93
2023/09/05 11:37:28;;;;;;;0.88;0.40;;;30.00;61.50;;;;;;6283411;22;20019;-91
2023/09/05 11:40:07;;;;;;;0.57;0.20;;;30.40;60.90;;;;;;6258980;22;20012;-92
2023/09/05 11:42:45;;;;;;;1.15;0.50;;;30.60;60.50;;;;;;6283770;22;20450;-94
2023/09/05 11:45:20;;;;;;;1.17;0.32;;;30.70;60.00;;;;;;6258637;22;20062;-92
2023/09/05 11:47:48;;;;;;;1.08;0.40;;;30.80;60.10;;;;;;6283390;22;20077;-89
2023/09/05 11:50:18;;;;;;;1.10;0.40;;;30.60;60.20;;;;;;6233396;22;20026;-89
2023/09/05 11:52:46;;;;;;;1.05;0.38;;;30.40;60.40;;;;;;6233508;22;20023;-90
2023/09/05 11:55:15;;;;;;;0.55;0.30;;;30.10;61.20;;;;;;6232781;22;20019;-89
2023/09/05 11:57:43;;;;;;;0.45;0.20;;;29.70;61.40;;;;;;6233789;22;20073;-93
2023/09/05 12:00:11;;;;;;;0.77;0.20;;;29.30;62.00;;;;;;6258415;22;20020;-91
2023/09/05 12:02:39;;;;;;;0.82;0.30;;;28.80;62.60;;;;;;6233069;22;20011;-91
2023/09/05 12:05:09;;;;;;;0.60;0.30;;;28.40;63.40;;;;;;6283410;22;20019;-90
2023/09/05 12:07:36;;;;;;;0.73;0.30;;;28.10;63.90;;;;;;6283129;22;20064;-85
2023/09/05 12:10:04;;;;;;;0.63;0.20;;;27.90;64.20;;;;;;6281994;22;20019;-84
2023/09/05 12:12:31;;;;;;;1.67;0.40;;;27.80;64.40;;;;;;6282377;22;20019;-83
2023/09/05 12:14:59;;;;;;;0.47;0.20;;;27.60;64.40;;;;;;6256238;22;20019;-86
2023/09/05 12:17:27;;;;;;;1.30;0.20;;;27.50;64.70;;;;;;6230981;22;20038;-86
2023/09/05 12:19:56;;;;;;;2.08;0.40;;;27.40;64.70;;;;;;6281380;22;20027;-87
2023/09/05 12:22:28;;;;;;;1.25;0.30;;;27.30;64.50;;;;;;6307857;22;20102;-87
2023/09/05 12:25:05;;;;;;;0.75;0.30;;;27.30;64.40;;;;;;6281268;22;20042;-86
2023/09/05 12:27:36;;;;;;;0.90;0.32;;;27.30;64.10;;;;;;6306075;22;20019;-86
2023/09/05 12:30:03;;;;;;;1.23;0.30;;;27.30;64.90;;;;;;6281832;22;20026;-88
2023/09/05 12:32:31;;;;;;;0.60;0.30;;;27.20;64.10;;;;;;6231843;22;20042;-88
2023/09/05 12:34:58;;;;;;;0.88;0.30;;;27.20;64.20;;;;;;6257013;22;20027;-87
2023/09/05 12:37:25;;;;;;;0.60;0.30;;;27.10;64.30;;;;;;6256500;22;20011;-88
2023/09/05 12:39:56;;;;;;;0.60;0.30;;;27.10;64.40;;;;;;6231370;22;20113;-86
2023/09/05 12:42:25;;;;;;;0.68;0.30;;;27.00;64.40;;;;;;6257723;22;20011;-89
2023/09/05 12:44:52;;;;;;;0.80;0.40;;;27.00;64.40;;;;;;6232941;22;20054;-89
2023/09/05 12:47:19;;;;;;;1.42;0.30;;;27.10;64.30;;;;;;6259608;22;20026;-89
2023/09/05 12:49:47;;;;;;;0.80;0.35;;;27.10;64.10;;;;;;6231448;22;20045;-86
2023/09/05 12:52:34;;;;;;;0.88;0.30;;;27.00;64.00;;;;;;6261382;22;20031;-87
2023/09/05 12:55:03;;;;;;;1.10;0.60;;;27.00;64.00;;;;;;6256893;22;20090;-86
2023/09/05 12:57:30;;;;;;;0.82;0.30;;;27.00;63.90;;;;;;6232023;22;20026;-86